createdAt,value
2023-03-10T00:01:44.282Z,99396.34
2023-03-10T00:12:06.373Z,99388.69
2023-03-10T00:22:27.895Z,99361.44
2023-03-10T00:32:50.874Z,99350.38
2023-03-10T00:43:12.443Z,99322.22
2023-03-10T00:53:35.245Z,99294.16
2023-03-10T01:03:59.728Z,99266.09
2023-03-10T01:14:21.532Z,99249.91
2023-03-10T01:24:43.023Z,99237.19
2023-03-10T01:35:05.775Z,99209.94
2023-03-10T01:45:27.224Z,99191.34
2023-03-10T01:55:55.984Z,99168.41
2023-03-10T02:06:20.061Z,99157.38
2023-03-10T02:16:41.786Z,99136.22
2023-03-10T02:27:27.093Z,99116.03
2023-03-10T02:37:50.764Z,99098.34
2023-03-10T02:48:16.286Z,99094.16
2023-03-10T02:58:37.817Z,99083.09
2023-03-10T03:08:59.417Z,99078.97
2023-03-10T03:19:20.940Z,99063.72
2023-03-10T03:29:42.422Z,99074.00
2023-03-10T03:40:12.772Z,99063.00
2023-03-10T03:50:34.348Z,99063.09
2023-03-10T04:00:55.874Z,99074.19
2023-03-10T04:11:17.422Z,99077.63
2023-03-10T04:21:38.980Z,99088.63
2023-03-10T04:32:05.576Z,99095.47
2023-03-10T04:42:28.111Z,99093.78
2023-03-10T04:52:50.199Z,99096.38
2023-03-10T05:03:11.726Z,99098.00
2023-03-10T05:13:33.281Z,99081.94
2023-03-10T05:23:54.784Z,99082.81
2023-03-10T05:34:16.413Z,99081.94
2023-03-10T05:44:38.897Z,99085.38
2023-03-10T05:55:00.469Z,99088.69
2023-03-10T06:05:21.994Z,99089.47
2023-03-10T06:15:43.465Z,99090.34
2023-03-10T06:26:12.020Z,99093.75
2023-03-10T06:36:33.615Z,99103.09
2023-03-10T06:46:55.121Z,99125.94
2023-03-10T06:57:18.151Z,99117.41
2023-03-10T07:07:41.567Z,99131.91
2023-03-10T07:18:03.132Z,99144.72
2023-03-10T07:28:25.796Z,99150.63
2023-03-10T07:38:47.957Z,99159.25
2023-03-10T07:49:09.635Z,99156.72
2023-03-10T07:59:31.126Z,99145.78
2023-03-10T08:09:53.280Z,99175.53
2023-03-10T08:20:15.102Z,99189.00
2023-03-10T08:30:52.479Z,99194.84
2023-03-10T08:41:26.458Z,99201.47
2023-03-10T08:51:49.476Z,99194.50
2023-03-10T09:02:15.139Z,99166.28
2023-03-10T09:12:39.122Z,99178.81
2023-03-10T09:23:00.799Z,99218.72
2023-03-10T09:33:22.277Z,99223.75
2023-03-10T09:43:50.399Z,99235.72
2023-03-10T09:54:34.482Z,99208.38
2023-03-10T10:04:58.352Z,99209.84
2023-03-10T10:15:22.575Z,99223.28
2023-03-10T10:25:43.938Z,99249.63
2023-03-10T10:36:05.750Z,99239.25
2023-03-10T10:46:29.649Z,99255.44
2023-03-10T10:57:01.260Z,99264.81
2023-03-10T11:07:27.395Z,99260.47
2023-03-10T11:17:58.101Z,99236.63
2023-03-10T11:28:31.387Z,99233.84
2023-03-10T11:38:55.448Z,99231.22
2023-03-10T11:49:17.361Z,99230.47
2023-03-10T11:59:44.260Z,99200.66
2023-03-10T12:10:11.877Z,99211.69
2023-03-10T12:20:34.719Z,99214.19
2023-03-10T12:30:59.269Z,99186.06
2023-03-10T12:41:26.847Z,99169.78
2023-03-10T12:51:51.917Z,99172.06
2023-03-10T13:02:35.663Z,99182.25
2023-03-10T13:13:00.606Z,99181.44
2023-03-10T13:23:22.644Z,99176.38
2023-03-10T13:33:52.970Z,99199.63
2023-03-10T13:44:25.984Z,99211.59
2023-03-10T13:54:47.787Z,99231.22
2023-03-10T14:05:29.092Z,99252.59
2023-03-10T14:15:54.971Z,99269.59
2023-03-10T14:26:16.766Z,99260.38
2023-03-10T14:36:38.362Z,99260.63
2023-03-10T14:47:00.708Z,99265.13
2023-03-10T14:57:22.871Z,99264.38
2023-03-10T15:07:44.387Z,99256.84
2023-03-10T15:18:06.122Z,99241.63
2023-03-10T15:28:27.607Z,99251.09
2023-03-10T15:38:48.973Z,99241.72
2023-03-10T15:49:10.299Z,99246.09
2023-03-10T15:59:34.126Z,99254.59
2023-03-10T16:09:55.527Z,99263.13
2023-03-10T16:20:19.115Z,99278.56
2023-03-10T16:30:40.484Z,99309.97
2023-03-10T16:41:02.362Z,99311.84
2023-03-10T16:51:23.773Z,99315.50
2023-03-10T17:01:45.474Z,99340.22
2023-03-10T17:12:07.051Z,99368.34
2023-03-10T17:22:28.621Z,99387.06
2023-03-10T17:32:50.043Z,99429.63
2023-03-10T17:43:23.338Z,99468.72
2023-03-10T17:53:54.171Z,99501.06
2023-03-10T18:04:16.236Z,99527.44
2023-03-10T18:25:08.908Z,99585.25
2023-03-10T18:35:30.359Z,99621.84
2023-03-10T18:45:51.973Z,99656.75
2023-03-10T18:56:13.382Z,99690.72
2023-03-10T19:06:34.821Z,99730.63
2023-03-10T19:16:56.194Z,99760.38
2023-03-10T19:27:17.632Z,99789.25
2023-03-10T19:37:42.807Z,99814.75
2023-03-10T19:48:04.307Z,99806.28
2023-03-10T19:58:26.129Z,99833.47
2023-03-10T20:08:47.585Z,99870.84
2023-03-10T20:19:08.930Z,99901.44
2023-03-10T20:29:30.432Z,99913.28
2023-03-10T20:39:51.814Z,99944.72
2023-03-10T20:50:13.394Z,99969.34
2023-03-10T21:00:34.802Z,100008.44
2023-03-10T21:10:56.185Z,100023.72
2023-03-10T21:21:17.622Z,100048.41
2023-03-10T21:31:38.991Z,100056.06
2023-03-10T21:42:00.343Z,100074.78
2023-03-10T21:52:21.744Z,100100.25
2023-03-10T22:02:43.264Z,100132.53
2023-03-10T22:13:04.732Z,100146.13
2023-03-10T22:23:26.115Z,100166.53
2023-03-10T22:33:47.608Z,100177.56
2023-03-10T22:44:08.966Z,100203.06
2023-03-10T22:54:30.330Z,100216.63
2023-03-10T23:04:51.685Z,100232.78
2023-03-10T23:15:24.825Z,100258.31
2023-03-10T23:25:48.188Z,100273.59
2023-03-10T23:36:11.670Z,100270.22
2023-03-10T23:46:33.169Z,100302.53
2023-03-10T23:56:54.529Z,100333.16
